Time;durP1;ratioP1;P1;durP2;ratioP2;P2;SDS_P1;SDS_P2;PMS_P1;PMS_P2;Temp;Humidity;BMP_temperature;BMP_pressure;BME280_temperature;BME280_humidity;BME280_pressure;Samples;Min_cycle;Max_cycle;Signal;HPM_P1;HPM_P2
2021/08/09 00:26:41;;;;;;;;;;;;;;;;;;;;;
2021/08/09 01:12:33;;;;;;;;;;;;;;;;;;;;;
2021/08/09 02:44:59;;;;;;;;;;;;;;;;;;;;;
2021/08/09 02:48:21;;;;;;;;;;;;;;;;;;;;;
2021/08/09 04:20:12;;;;;;;121.57;116.07;;;13.10;99.90;;;;;;6150922;23;20410;-77
2021/08/09 04:22:39;;;;;;;122.10;115.80;;;13.20;99.90;;;;;;6214928;23;20494;-79
2021/08/09 04:25:07;;;;;;;120.47;114.80;;;13.20;99.90;;;;;;6214649;23;20495;-79
2021/08/09 04:27:34;;;;;;;123.17;117.60;;;13.30;99.90;;;;;;6214008;23;20720;-80
2021/08/09 04:30:01;;;;;;;125.87;120.17;;;13.30;99.90;;;;;;6215521;23;20466;-81
2021/08/09 04:32:38;;;;;;;128.93;122.47;;;13.30;99.90;;;;;;6225294;23;20416;-81
2021/08/09 04:35:08;;;;;;;125.20;119.60;;;13.40;99.90;;;;;;6225056;23;20414;-83
2021/08/09 04:37:41;;;;;;;128.73;122.93;;;13.30;99.90;;;;;;6215328;23;20403;-83
2021/08/09 04:40:13;;;;;;;126.57;120.27;;;13.40;99.90;;;;;;6225126;23;20408;-83
2021/08/09 04:42:40;;;;;;;122.87;117.30;;;13.50;99.90;;;;;;6224309;23;20787;-80
2021/08/09 04:45:24;;;;;;;117.47;112.07;;;13.50;99.90;;;;;;6225167;23;20446;-84
2021/08/09 04:48:01;;;;;;;117.93;112.77;;;13.50;99.90;;;;;;6224868;23;20481;-84
2021/08/09 04:50:28;;;;;;;114.30;109.20;;;13.50;99.90;;;;;;6225077;23;20465;-85
2021/08/09 04:52:57;;;;;;;112.77;107.77;;;13.50;99.90;;;;;;6215234;23;20469;-84
2021/08/09 04:55:24;;;;;;;113.17;108.10;;;13.50;99.90;;;;;;6213790;23;20453;-82
2021/08/09 04:57:50;;;;;;;113.67;108.67;;;13.50;99.90;;;;;;6225269;23;20437;-85
2021/08/09 05:00:17;;;;;;;114.77;109.67;;;13.50;99.90;;;;;;6215138;23;20400;-83
2021/08/09 05:02:44;;;;;;;114.77;109.73;;;13.60;99.90;;;;;;6225144;23;20411;-84
2021/08/09 05:32:51;;;;;;;102.30;98.00;;;13.90;99.90;;;;;;5920709;23;20907;-82
2021/08/09 05:35:21;;;;;;;107.57;102.63;;;13.90;99.90;;;;;;6095397;23;20404;-83
2021/08/09 05:37:48;;;;;;;107.93;102.63;;;14.00;99.90;;;;;;6104955;23;20495;-81
2021/08/09 05:40:15;;;;;;;108.47;103.00;;;14.00;99.90;;;;;;6152979;23;20452;-84
2021/08/09 05:42:48;;;;;;;105.03;100.33;;;14.10;99.90;;;;;;6195994;23;20491;-81
2021/08/09 05:45:15;;;;;;;107.00;102.30;;;14.10;99.90;;;;;;6226392;23;20435;-84
2021/08/09 05:47:42;;;;;;;99.80;95.57;;;14.20;99.90;;;;;;6216435;23;20880;-82
2021/08/09 05:50:12;;;;;;;94.13;90.20;;;14.10;99.90;;;;;;6216668;23;20404;-83
2021/08/09 05:52:39;;;;;;;93.87;89.77;;;14.10;99.90;;;;;;6216348;23;20931;-82
2021/08/09 05:55:07;;;;;;;93.40;89.20;;;14.10;99.90;;;;;;6226798;23;20412;-84
2021/08/09 05:57:59;;;;;;;93.47;89.37;;;14.10;99.90;;;;;;6214750;23;20955;-86
2021/08/09 06:52:23;;;;;;;8.60;7.90;;;16.40;99.90;;;;;;6036393;23;20441;-84
2021/08/09 06:58:01;;;;;;;6.50;4.73;;;16.10;99.90;;;;;;6113974;23;20484;-84
2021/08/09 07:10:24;;;;;;;5.83;3.20;;;16.40;99.90;;;;;;6149158;23;20409;-83
2021/08/09 07:16:28;;;;;;;4.57;2.40;;;16.70;99.90;;;;;;6073480;23;20404;-86
2021/08/09 09:59:40;;;;;;;6.40;1.60;;;22.40;21.40;;;;;;5934273;24;20427;-82
2021/08/09 10:02:07;;;;;;;4.70;1.20;;;23.60;20.60;;;;;;5925692;24;20421;-80
2021/08/09 10:04:34;;;;;;;5.10;1.87;;;25.00;17.60;;;;;;6126893;23;20512;-81
2021/08/09 10:07:03;;;;;;;4.40;1.40;;;25.40;13.80;;;;;;6188675;23;20428;-76
2021/08/09 10:09:31;;;;;;;5.70;1.33;;;26.20;11.20;;;;;;6185836;23;20492;-76
2021/08/09 10:11:59;;;;;;;6.60;1.40;;;26.50;7.30;;;;;;6184842;23;20487;-80
2021/08/09 10:14:26;;;;;;;5.10;1.33;;;27.00;8.50;;;;;;6196063;23;20405;-76
2021/08/09 10:16:58;;;;;;;4.73;1.30;;;26.50;8.90;;;;;;6196047;23;20405;-78
2021/08/09 10:19:25;;;;;;;4.00;1.10;;;25.10;7.70;;;;;;6185864;23;20707;-75
2021/08/09 10:21:53;;;;;;;5.97;1.50;;;24.20;7.60;;;;;;6196340;23;20409;-75
2021/08/09 10:24:38;;;;;;;5.70;1.60;;;23.50;9.80;;;;;;6196022;23;20499;-77
2021/08/09 10:27:05;;;;;;;8.00;1.60;;;23.30;11.60;;;;;;6185017;23;20371;-79
2021/08/09 10:29:32;;;;;;;4.43;1.30;;;23.20;14.30;;;;;;6186362;23;20403;-77
2021/08/09 10:32:19;;;;;;;4.37;1.33;;;23.50;14.00;;;;;;6186135;23;20401;-77
2021/08/09 10:34:46;;;;;;;3.87;1.30;;;23.60;14.80;;;;;;6186063;23;20928;-77
2021/08/09 10:37:14;;;;;;;4.20;1.20;;;23.60;12.20;;;;;;6186349;23;20483;-78
2021/08/09 10:40:06;;;;;;;3.77;1.10;;;23.70;10.60;;;;;;6186208;23;20407;-78
2021/08/09 10:42:39;;;;;;;5.50;1.60;;;24.00;7.40;;;;;;6155655;23;20516;-79
2021/08/09 10:45:09;;;;;;;7.87;1.70;;;24.40;8.80;;;;;;6185825;23;20432;-78
2021/08/09 10:48:06;;;;;;;4.30;1.20;;;24.30;8.30;;;;;;6185977;23;20456;-83
2021/08/09 10:50:51;;;;;;;6.88;1.90;;;24.70;7.20;;;;;;6185295;23;20867;-82
2021/08/09 10:53:42;;;;;;;5.30;1.20;;;25.40;6.10;;;;;;6198310;23;20231;-80
2021/08/09 10:56:09;;;;;;;7.17;1.43;;;25.30;4.90;;;;;;6214655;23;20400;-81
2021/08/09 10:58:56;;;;;;;5.47;1.57;;;25.70;5.20;;;;;;6216220;23;20400;-79
2021/08/09 11:01:25;;;;;;;6.10;1.47;;;26.00;2.40;;;;;;6216136;23;20407;-80
2021/08/09 14:30:55;;;;;;;4.23;1.10;;;24.40;3.90;;;;;;6045481;23;20438;-82
2021/08/09 14:48:11;;;;;;;4.60;1.30;;;22.10;10.50;;;;;;6180973;23;20604;-81
2021/08/09 14:50:38;;;;;;;4.60;1.63;;;22.00;11.60;;;;;;6245956;23;20395;-82
2021/08/09 14:53:05;;;;;;;3.90;1.30;;;22.10;13.70;;;;;;6246709;23;20403;-82
2021/08/09 14:55:31;;;;;;;4.90;1.00;;;22.50;14.00;;;;;;6254716;23;20411;-82
2021/08/09 14:57:58;;;;;;;4.67;1.60;;;22.20;11.50;;;;;;6256865;23;20403;-81
2021/08/09 15:00:25;;;;;;;5.47;2.00;;;22.00;12.60;;;;;;6246116;23;20487;-82
2021/08/09 15:02:52;;;;;;;6.50;1.30;;;21.70;13.40;;;;;;6256370;23;20425;-84
2021/08/09 15:05:20;;;;;;;5.73;1.27;;;21.50;15.60;;;;;;6246149;23;20515;-81
2021/08/09 15:07:47;;;;;;;4.00;1.30;;;21.30;15.60;;;;;;6243718;23;20438;-81
2021/08/09 15:10:14;;;;;;;3.70;1.20;;;21.20;15.60;;;;;;6243860;23;20399;-81
2021/08/09 15:12:41;;;;;;;3.80;1.40;;;21.10;18.10;;;;;;6244385;23;20410;-85
2021/08/09 15:15:09;;;;;;;5.43;1.57;;;21.00;18.50;;;;;;6244556;23;20404;-81
2021/08/09 15:17:36;;;;;;;5.07;1.30;;;20.80;19.20;;;;;;6244297;23;20913;-81
2021/08/09 15:20:04;;;;;;;6.17;1.33;;;20.70;20.20;;;;;;6244029;23;20952;-82
2021/08/09 15:22:32;;;;;;;4.20;1.40;;;20.80;20.30;;;;;;6254920;23;20442;-81
2021/08/09 15:25:00;;;;;;;7.70;1.70;;;20.80;21.30;;;;;;6244395;23;20454;-81
2021/08/09 15:27:28;;;;;;;3.73;1.47;;;20.90;22.30;;;;;;6253059;23;20415;-82
2021/08/09 15:29:55;;;;;;;3.40;1.00;;;21.00;20.50;;;;;;6255460;23;20402;-83
2021/08/09 15:32:22;;;;;;;4.10;1.50;;;21.20;20.60;;;;;;6256198;23;20415;-81
2021/08/09 15:34:49;;;;;;;4.43;1.40;;;21.20;20.60;;;;;;6256279;23;20411;-81
2021/08/09 15:37:26;;;;;;;;;;;;;;;;;;;;;
2021/08/09 18:26:05;;;;;;;;;;;;;;;;;;;;;
2021/08/09 18:52:04;;;;;;;120.90;115.07;;;15.10;99.90;;;;;;5916868;24;20522;-88
2021/08/09 18:58:37;;;;;;;132.20;125.87;;;15.10;99.90;;;;;;6062129;23;20413;-88
2021/08/09 19:19:05;;;;;;;;;;;;;;;;;;;;;
2021/08/09 22:19:50;;;;;;;;;;;;;;;;;;;;;
